createdAt,value
2023-04-30T00:01:33.496Z,17.65
2023-04-30T00:04:01.348Z,17.60
2023-04-30T00:06:28.668Z,17.53
2023-04-30T00:08:55.461Z,17.41
2023-04-30T00:11:23.503Z,17.43
2023-04-30T00:13:50.121Z,17.44
2023-04-30T00:16:16.980Z,17.45
2023-04-30T00:18:43.864Z,17.34
2023-04-30T00:21:10.489Z,17.30
2023-04-30T00:23:37.187Z,17.46
2023-04-30T00:26:03.939Z,17.47
2023-04-30T00:28:31.042Z,17.44
2023-04-30T00:30:58.716Z,17.48
2023-04-30T00:33:25.486Z,17.37
2023-04-30T00:35:52.086Z,17.40
2023-04-30T00:38:19.112Z,17.34
2023-04-30T00:40:46.706Z,17.28
2023-04-30T00:43:13.333Z,17.28
2023-04-30T00:45:40.045Z,17.40
2023-04-30T00:48:07.987Z,17.34
2023-04-30T00:50:36.378Z,17.40
2023-04-30T00:53:03.303Z,17.52
2023-04-30T00:55:33.195Z,17.49
2023-04-30T00:58:00.167Z,17.45
2023-04-30T01:00:27.400Z,17.24
2023-04-30T01:02:54.429Z,17.15
2023-04-30T01:05:21.487Z,17.24
2023-04-30T01:07:48.640Z,17.14
2023-04-30T01:10:15.532Z,17.22
2023-04-30T01:12:46.966Z,17.39
2023-04-30T01:15:31.608Z,17.34
2023-04-30T01:18:26.344Z,17.39
2023-04-30T01:21:04.512Z,17.37
2023-04-30T01:23:34.069Z,17.49
2023-04-30T01:26:18.459Z,17.33
2023-04-30T01:28:45.071Z,17.44
2023-04-30T01:31:18.446Z,17.46
2023-04-30T01:33:45.104Z,17.40
2023-04-30T01:36:34.751Z,17.24
2023-04-30T01:39:15.804Z,17.31
2023-04-30T01:41:45.394Z,17.31
2023-04-30T01:44:24.813Z,17.24
2023-04-30T01:47:03.196Z,17.29
2023-04-30T01:49:51.569Z,17.30
2023-04-30T01:52:22.985Z,17.21
2023-04-30T01:54:53.142Z,17.17
2023-04-30T01:57:32.031Z,17.08
2023-04-30T01:59:58.698Z,16.95
2023-04-30T02:02:25.508Z,16.87
2023-04-30T02:04:52.283Z,16.87
2023-04-30T02:07:27.405Z,16.83
2023-04-30T02:09:54.697Z,16.86
2023-04-30T02:12:21.517Z,16.82
2023-04-30T02:14:48.215Z,16.99
2023-04-30T02:17:14.973Z,17.08
2023-04-30T02:19:42.207Z,17.15
2023-04-30T02:22:08.891Z,17.09
2023-04-30T02:24:35.597Z,17.11
2023-04-30T02:27:02.298Z,17.20
2023-04-30T02:29:28.972Z,17.25
2023-04-30T02:31:58.850Z,17.32
2023-04-30T02:34:25.766Z,17.32
2023-04-30T02:36:52.928Z,17.26
2023-04-30T02:39:19.854Z,17.45
2023-04-30T02:41:46.461Z,17.51
2023-04-30T02:44:16.109Z,17.46
2023-04-30T02:46:42.978Z,17.53
2023-04-30T02:49:10.229Z,17.52
2023-04-30T02:51:36.954Z,17.60
2023-04-30T02:54:04.289Z,17.62
2023-04-30T02:56:30.933Z,17.60
2023-04-30T02:58:57.910Z,17.40
2023-04-30T03:01:24.686Z,17.54
2023-04-30T03:03:51.536Z,17.56
2023-04-30T03:06:18.297Z,17.60
2023-04-30T03:08:46.258Z,17.52
2023-04-30T03:11:12.937Z,17.60
2023-04-30T03:13:39.857Z,17.56
2023-04-30T03:16:07.029Z,17.63
2023-04-30T03:18:33.782Z,17.69
2023-04-30T03:21:00.489Z,17.68
2023-04-30T03:23:27.705Z,17.64
2023-04-30T03:25:57.929Z,17.67
2023-04-30T03:28:24.532Z,17.55
2023-04-30T03:30:51.179Z,17.60
2023-04-30T03:33:18.145Z,17.61
2023-04-30T03:35:44.893Z,17.59
2023-04-30T03:38:11.663Z,17.66
2023-04-30T03:40:38.560Z,17.70
2023-04-30T03:43:05.417Z,17.72
2023-04-30T03:45:32.093Z,17.75
2023-04-30T03:47:58.817Z,17.79
2023-04-30T03:50:25.700Z,17.77
2023-04-30T03:52:53.432Z,17.78
2023-04-30T03:55:20.056Z,17.70
2023-04-30T03:57:46.759Z,17.75
2023-04-30T04:00:13.623Z,17.78
2023-04-30T04:02:40.502Z,17.76
2023-04-30T04:05:07.313Z,17.76
2023-04-30T04:07:34.380Z,17.79
2023-04-30T04:10:00.996Z,17.82
2023-04-30T04:12:28.909Z,17.76
2023-04-30T04:14:55.619Z,17.74
2023-04-30T04:17:22.266Z,17.75
2023-04-30T04:19:48.954Z,17.73
2023-04-30T04:22:15.764Z,17.71
2023-04-30T04:24:42.378Z,17.64
2023-04-30T04:27:09.014Z,17.64
2023-04-30T04:29:36.228Z,17.61
2023-04-30T04:32:03.059Z,17.59
2023-04-30T04:34:29.729Z,17.50
2023-04-30T04:36:56.375Z,17.52
2023-04-30T04:39:23.075Z,17.45
2023-04-30T04:41:52.009Z,17.31
2023-04-30T04:44:18.765Z,17.27
2023-04-30T04:46:45.367Z,17.26
2023-04-30T04:49:12.192Z,17.33
2023-04-30T04:51:38.811Z,17.20
2023-04-30T04:54:05.496Z,17.38
2023-04-30T04:56:32.161Z,17.50
2023-04-30T04:58:58.950Z,17.55
2023-04-30T05:01:25.732Z,17.61
2023-04-30T05:03:52.732Z,17.62
2023-04-30T05:06:19.610Z,17.63
2023-04-30T05:08:46.255Z,17.62
2023-04-30T05:11:14.221Z,17.63
2023-04-30T05:13:42.273Z,17.59
2023-04-30T05:16:09.263Z,17.67
2023-04-30T05:18:36.010Z,17.71
2023-04-30T05:21:02.946Z,17.76
2023-04-30T05:23:29.689Z,17.78
2023-04-30T05:25:56.350Z,17.76
2023-04-30T05:28:23.045Z,17.74
2023-04-30T05:30:49.896Z,17.75
2023-04-30T05:33:16.564Z,17.81
2023-04-30T05:35:43.170Z,17.84
2023-04-30T05:38:09.867Z,17.91
2023-04-30T05:40:36.519Z,17.66
2023-04-30T05:43:03.183Z,17.83
2023-04-30T05:45:29.886Z,17.95
2023-04-30T05:47:56.586Z,17.91
2023-04-30T05:50:23.297Z,17.97
2023-04-30T05:52:50.314Z,18.02
2023-04-30T05:55:17.098Z,18.04
2023-04-30T05:57:44.764Z,18.00
2023-04-30T06:00:12.918Z,18.10
2023-04-30T06:02:39.709Z,18.18
2023-04-30T06:05:07.851Z,18.10
2023-04-30T06:07:34.665Z,18.18
2023-04-30T06:10:01.331Z,18.22
2023-04-30T06:12:27.991Z,18.28
2023-04-30T06:14:54.604Z,18.26
2023-04-30T06:17:21.288Z,18.40
2023-04-30T06:19:47.980Z,18.39
2023-04-30T06:22:14.576Z,18.38
2023-04-30T06:24:41.236Z,18.48
2023-04-30T06:27:08.203Z,18.47
2023-04-30T06:29:36.103Z,18.49
2023-04-30T06:32:02.731Z,18.53
2023-04-30T06:34:30.334Z,18.54
2023-04-30T06:36:56.977Z,18.36
2023-04-30T06:39:23.668Z,18.46
2023-04-30T06:41:50.388Z,18.56
2023-04-30T06:44:17.160Z,18.65
2023-04-30T06:46:44.083Z,18.72
2023-04-30T06:49:11.030Z,18.80
2023-04-30T06:51:38.190Z,18.80
2023-04-30T06:54:04.813Z,18.76
2023-04-30T06:56:31.455Z,18.94
2023-04-30T06:58:58.101Z,19.09
2023-04-30T07:01:24.754Z,19.24
2023-04-30T07:03:52.055Z,19.27
2023-04-30T07:06:18.837Z,19.23
2023-04-30T07:08:45.557Z,19.32
2023-04-30T07:11:12.189Z,19.43
2023-04-30T07:13:40.370Z,19.58
2023-04-30T07:16:07.253Z,19.46
2023-04-30T07:18:33.968Z,19.48
2023-04-30T07:21:00.619Z,19.53
2023-04-30T07:23:29.200Z,19.53
2023-04-30T07:25:57.254Z,19.46
2023-04-30T07:28:25.273Z,19.49
2023-04-30T07:30:51.865Z,19.45
2023-04-30T07:33:18.620Z,19.40
2023-04-30T07:35:45.258Z,19.40
2023-04-30T07:38:11.996Z,19.42
2023-04-30T07:40:38.726Z,19.48
2023-04-30T07:43:05.463Z,19.58
2023-04-30T07:45:32.187Z,19.65
2023-04-30T07:47:58.963Z,19.63
2023-04-30T07:50:25.613Z,19.59
2023-04-30T07:52:52.239Z,19.17
2023-04-30T07:55:18.908Z,18.95
2023-04-30T07:57:45.535Z,18.98
2023-04-30T08:00:12.608Z,19.19
2023-04-30T08:02:39.285Z,19.21
2023-04-30T08:05:06.118Z,19.36
2023-04-30T08:07:33.053Z,19.56
2023-04-30T08:09:59.744Z,19.72
2023-04-30T08:12:26.428Z,19.82
2023-04-30T08:15:05.886Z,19.77
2023-04-30T08:17:33.040Z,19.77
2023-04-30T08:20:00.815Z,19.63
2023-04-30T08:22:27.463Z,19.60
2023-04-30T08:24:55.369Z,19.70
2023-04-30T08:27:22.873Z,19.83
2023-04-30T08:29:49.482Z,19.91
2023-04-30T08:32:16.207Z,19.86
2023-04-30T08:34:42.906Z,19.84
2023-04-30T08:37:09.554Z,19.83
2023-04-30T08:39:36.154Z,19.95
2023-04-30T08:42:03.221Z,19.88
2023-04-30T08:44:29.947Z,19.97
2023-04-30T08:46:57.232Z,19.99
2023-04-30T08:49:24.903Z,19.84
2023-04-30T08:51:51.972Z,19.90
2023-04-30T08:54:20.965Z,20.04
2023-04-30T08:56:47.663Z,19.95
2023-04-30T08:59:14.317Z,20.00
2023-04-30T09:01:41.508Z,20.08
2023-04-30T09:04:08.524Z,20.29
2023-04-30T09:06:35.379Z,20.42
2023-04-30T09:09:15.118Z,20.41
2023-04-30T09:11:42.110Z,20.26
2023-04-30T09:14:08.884Z,20.27
2023-04-30T09:16:46.264Z,20.36
2023-04-30T09:19:29.515Z,20.38
2023-04-30T09:21:56.281Z,20.41
2023-04-30T09:24:23.174Z,20.57
2023-04-30T09:26:51.038Z,20.53
2023-04-30T09:29:18.087Z,20.76
2023-04-30T09:31:46.321Z,20.79
2023-04-30T09:34:13.235Z,20.98
2023-04-30T09:36:53.156Z,21.13
2023-04-30T09:39:19.873Z,20.99
2023-04-30T09:41:47.892Z,21.10
2023-04-30T09:44:30.928Z,21.00
2023-04-30T09:46:57.770Z,20.98
2023-04-30T09:49:24.670Z,20.98
2023-04-30T09:52:01.159Z,21.08
2023-04-30T09:54:32.059Z,21.05
2023-04-30T09:56:59.807Z,20.79
2023-04-30T09:59:30.782Z,20.86
2023-04-30T10:01:59.150Z,20.83
2023-04-30T10:04:27.673Z,20.85
2023-04-30T10:06:54.805Z,20.76
2023-04-30T10:09:24.236Z,20.68
2023-04-30T10:11:51.961Z,20.72
2023-04-30T10:14:18.636Z,20.55
2023-04-30T10:16:55.286Z,20.63
2023-04-30T10:19:30.922Z,20.36
2023-04-30T10:21:57.693Z,20.35
2023-04-30T10:24:24.322Z,20.39
2023-04-30T10:26:50.959Z,20.36
2023-04-30T10:29:17.933Z,20.41
2023-04-30T10:31:49.067Z,20.55
2023-04-30T10:34:53.176Z,20.68
2023-04-30T10:37:34.736Z,20.53
2023-04-30T10:40:01.369Z,20.66
2023-04-30T10:42:28.046Z,20.54
2023-04-30T10:44:54.753Z,20.55
2023-04-30T10:47:21.453Z,20.61
2023-04-30T10:49:49.444Z,20.64
2023-04-30T10:52:26.031Z,20.82
2023-04-30T10:54:52.658Z,20.82
2023-04-30T10:57:19.322Z,20.67
2023-04-30T10:59:53.923Z,20.57
2023-04-30T11:02:20.814Z,20.64
2023-04-30T11:05:16.545Z,20.68
2023-04-30T11:07:58.575Z,20.81
2023-04-30T11:10:26.466Z,20.53
2023-04-30T11:12:54.484Z,20.66
2023-04-30T11:15:22.093Z,20.70
2023-04-30T11:17:49.219Z,20.76
2023-04-30T11:20:23.608Z,20.84
2023-04-30T11:23:12.660Z,20.87
2023-04-30T11:25:42.715Z,20.78
2023-04-30T11:28:13.912Z,20.79
2023-04-30T11:30:41.644Z,20.71
2023-04-30T11:33:09.460Z,20.74
2023-04-30T11:35:37.333Z,20.93
2023-04-30T11:38:04.032Z,21.08
2023-04-30T11:40:30.671Z,21.22
2023-04-30T11:42:57.275Z,21.18
2023-04-30T11:45:25.242Z,21.05
2023-04-30T11:47:53.178Z,21.17
2023-04-30T11:50:21.182Z,21.21
2023-04-30T11:52:52.084Z,21.27
2023-04-30T11:55:23.680Z,21.31
2023-04-30T11:57:51.576Z,21.40
2023-04-30T12:00:19.624Z,21.48
2023-04-30T12:02:48.191Z,21.54
2023-04-30T12:05:15.549Z,21.40
2023-04-30T12:07:46.491Z,21.45
2023-04-30T12:10:13.246Z,21.55
2023-04-30T12:12:39.978Z,21.66
2023-04-30T12:15:19.604Z,21.63
2023-04-30T12:17:46.581Z,21.69
2023-04-30T12:20:14.026Z,21.62
2023-04-30T12:22:41.404Z,21.71
2023-04-30T12:25:09.248Z,21.89
2023-04-30T12:27:36.411Z,21.97
2023-04-30T12:30:06.812Z,22.05
2023-04-30T12:32:37.979Z,22.10
2023-04-30T12:35:04.965Z,22.16
2023-04-30T12:37:31.856Z,22.11
2023-04-30T12:39:58.460Z,22.11
2023-04-30T12:42:25.163Z,22.19
2023-04-30T12:44:51.880Z,22.25
2023-04-30T12:47:18.489Z,22.20
2023-04-30T12:49:45.259Z,22.15
2023-04-30T12:52:12.884Z,22.12
2023-04-30T12:54:39.646Z,22.21
2023-04-30T12:57:07.500Z,22.26
2023-04-30T12:59:40.166Z,22.19
2023-04-30T13:02:14.135Z,22.24
2023-04-30T13:04:41.529Z,22.19
2023-04-30T13:07:08.435Z,22.11
2023-04-30T13:09:36.005Z,22.18
2023-04-30T13:12:02.948Z,22.25
2023-04-30T13:14:30.909Z,22.09
2023-04-30T13:16:59.030Z,22.25
2023-04-30T13:19:26.942Z,22.09
2023-04-30T13:21:53.574Z,22.11
2023-04-30T13:24:20.273Z,22.18
2023-04-30T13:26:46.951Z,22.03
2023-04-30T13:29:13.763Z,22.16
2023-04-30T13:31:40.534Z,22.14
2023-04-30T13:34:07.169Z,22.12
2023-04-30T13:36:33.884Z,22.01
2023-04-30T13:39:03.312Z,22.04
2023-04-30T13:41:29.935Z,21.85
2023-04-30T13:43:56.534Z,21.91
2023-04-30T13:46:24.099Z,21.98
2023-04-30T13:48:50.813Z,21.99
2023-04-30T13:51:17.526Z,21.96
2023-04-30T13:53:44.183Z,21.91
2023-04-30T13:56:10.879Z,21.78
2023-04-30T13:58:37.495Z,21.81
2023-04-30T14:01:04.191Z,21.76
2023-04-30T14:03:30.929Z,21.75
2023-04-30T14:05:57.711Z,21.56
2023-04-30T14:08:24.353Z,21.54
2023-04-30T14:10:51.011Z,21.24
2023-04-30T14:13:17.645Z,21.09
2023-04-30T14:15:44.390Z,21.13
2023-04-30T14:18:11.150Z,21.15
2023-04-30T14:20:37.821Z,21.29
2023-04-30T14:23:04.508Z,21.32
2023-04-30T14:25:31.116Z,21.35
2023-04-30T14:27:57.872Z,21.36
2023-04-30T14:30:24.494Z,21.25
2023-04-30T14:32:51.210Z,21.35
2023-04-30T14:35:17.883Z,21.40
2023-04-30T14:37:44.527Z,21.41
2023-04-30T14:40:11.513Z,21.39
2023-04-30T14:42:38.176Z,21.38
2023-04-30T14:45:05.314Z,21.32
2023-04-30T14:47:32.085Z,21.30
2023-04-30T14:49:58.923Z,21.30
2023-04-30T14:52:25.715Z,21.29
2023-04-30T14:54:52.430Z,21.36
2023-04-30T14:57:19.106Z,21.37
2023-04-30T14:59:45.837Z,21.44
2023-04-30T15:02:12.621Z,21.47
2023-04-30T15:04:41.619Z,21.59
2023-04-30T15:07:08.330Z,21.66
2023-04-30T15:09:35.002Z,21.61
2023-04-30T15:12:01.657Z,21.69
2023-04-30T15:14:28.377Z,21.69
2023-04-30T15:16:54.993Z,21.68
2023-04-30T15:19:21.653Z,21.75
2023-04-30T15:21:49.123Z,21.73
2023-04-30T15:24:15.992Z,21.77
2023-04-30T15:26:42.634Z,21.84
2023-04-30T15:29:09.336Z,21.92
2023-04-30T15:31:36.293Z,21.91
2023-04-30T15:34:03.122Z,21.89
2023-04-30T15:36:29.744Z,21.89
2023-04-30T15:38:56.348Z,21.80
2023-04-30T15:41:22.996Z,21.79
2023-04-30T15:43:49.609Z,21.72
2023-04-30T15:46:16.350Z,21.67
2023-04-30T15:48:43.018Z,21.64
2023-04-30T15:51:09.644Z,21.39
2023-04-30T15:53:36.361Z,21.20
2023-04-30T15:56:03.286Z,21.11
2023-04-30T15:58:29.887Z,21.12
2023-04-30T16:00:56.519Z,21.10
2023-04-30T16:03:23.418Z,20.85
2023-04-30T16:05:50.173Z,20.80
2023-04-30T16:08:19.371Z,20.75
2023-04-30T16:10:46.126Z,20.67
2023-04-30T16:13:12.777Z,20.59
2023-04-30T16:15:39.443Z,20.56
2023-04-30T16:18:06.333Z,20.57
2023-04-30T16:20:33.034Z,20.62
2023-04-30T16:22:59.767Z,20.64
2023-04-30T16:25:26.384Z,20.62
2023-04-30T16:27:53.156Z,20.50
2023-04-30T16:30:19.865Z,20.52
2023-04-30T16:32:46.588Z,20.48
2023-04-30T16:35:13.364Z,20.34
2023-04-30T16:37:40.152Z,20.31
2023-04-30T16:40:07.371Z,20.20
2023-04-30T16:42:34.297Z,20.04
2023-04-30T16:45:01.170Z,20.10
2023-04-30T16:47:27.956Z,20.16
2023-04-30T16:49:55.027Z,20.22
2023-04-30T16:52:21.797Z,20.15
2023-04-30T16:54:48.464Z,20.07
2023-04-30T16:57:15.172Z,19.97
2023-04-30T16:59:41.963Z,19.91
2023-04-30T17:02:08.678Z,19.91
2023-04-30T17:04:35.321Z,19.82
2023-04-30T17:07:01.923Z,19.74
2023-04-30T17:09:28.691Z,19.75
2023-04-30T17:11:55.541Z,19.73
2023-04-30T17:14:22.258Z,19.75
2023-04-30T17:16:49.086Z,19.71
2023-04-30T17:19:15.705Z,19.71
2023-04-30T17:21:42.382Z,19.73
2023-04-30T17:24:09.085Z,19.74
2023-04-30T17:26:35.837Z,19.77
2023-04-30T17:29:02.470Z,19.78
2023-04-30T17:31:32.148Z,19.75
2023-04-30T17:33:58.826Z,19.68
2023-04-30T17:36:25.758Z,19.63
2023-04-30T17:38:52.437Z,19.56
2023-04-30T17:41:19.048Z,19.47
2023-04-30T17:43:45.736Z,19.41
2023-04-30T17:46:12.459Z,19.39
2023-04-30T17:48:39.163Z,19.46
2023-04-30T17:51:05.898Z,19.46
2023-04-30T17:53:33.358Z,19.51
2023-04-30T17:56:00.412Z,19.53
2023-04-30T17:58:27.120Z,19.55
2023-04-30T18:00:53.746Z,19.53
2023-04-30T18:03:20.563Z,19.55
2023-04-30T18:05:47.253Z,19.52
2023-04-30T18:08:14.014Z,19.52
2023-04-30T18:10:40.668Z,19.54
2023-04-30T18:13:07.332Z,19.47
2023-04-30T18:15:34.113Z,19.37
2023-04-30T18:18:00.778Z,19.25
2023-04-30T18:20:27.435Z,19.12
2023-04-30T18:22:54.098Z,19.03
2023-04-30T18:25:20.825Z,18.99
2023-04-30T18:27:47.466Z,18.96
2023-04-30T18:30:14.228Z,18.88
2023-04-30T18:32:40.956Z,18.81
2023-04-30T18:35:07.789Z,18.77
2023-04-30T18:37:34.397Z,18.71
2023-04-30T18:40:01.037Z,18.67
2023-04-30T18:42:27.690Z,18.62
2023-04-30T18:44:54.460Z,18.58
2023-04-30T18:47:21.111Z,18.53
2023-04-30T18:49:47.781Z,18.46
2023-04-30T18:52:14.405Z,18.43
2023-04-30T18:54:41.066Z,18.43
2023-04-30T18:57:07.724Z,18.37
2023-04-30T18:59:34.349Z,18.31
2023-04-30T19:02:01.393Z,18.27
2023-04-30T19:04:28.156Z,18.27
2023-04-30T19:06:54.961Z,18.25
2023-04-30T19:09:22.210Z,18.25
2023-04-30T19:11:48.959Z,18.26
2023-04-30T19:14:15.621Z,18.28
2023-04-30T19:16:43.752Z,18.30
2023-04-30T19:19:10.417Z,18.29
2023-04-30T19:21:37.703Z,18.38
2023-04-30T19:24:04.448Z,18.48
2023-04-30T19:26:32.114Z,18.51
2023-04-30T19:28:58.748Z,18.52
2023-04-30T19:31:25.771Z,18.45
2023-04-30T19:33:53.572Z,18.40
2023-04-30T19:36:21.740Z,18.34
2023-04-30T19:38:50.981Z,18.29
2023-04-30T19:41:17.908Z,18.32
2023-04-30T19:43:45.556Z,18.34
2023-04-30T19:46:12.212Z,18.37
2023-04-30T19:48:38.913Z,18.27
2023-04-30T19:51:05.682Z,18.21
2023-04-30T19:53:32.409Z,18.17
2023-04-30T19:55:59.577Z,18.16
2023-04-30T19:58:27.664Z,18.14
2023-04-30T20:00:55.609Z,18.08
2023-04-30T20:03:23.647Z,18.03
2023-04-30T20:05:50.384Z,17.96
2023-04-30T20:08:17.290Z,17.94
2023-04-30T20:10:45.679Z,17.91
2023-04-30T20:13:13.798Z,17.89
2023-04-30T20:15:40.480Z,17.85
2023-04-30T20:18:07.200Z,17.86
2023-04-30T20:20:33.910Z,17.86
2023-04-30T20:23:10.308Z,17.91
2023-04-30T20:25:37.045Z,17.95
2023-04-30T20:28:03.710Z,17.97
2023-04-30T20:30:30.424Z,18.05
2023-04-30T20:32:57.079Z,18.03
2023-04-30T20:35:23.708Z,18.02
2023-04-30T20:37:50.591Z,17.97
2023-04-30T20:40:17.388Z,17.97
2023-04-30T20:42:45.031Z,17.96
2023-04-30T20:45:11.754Z,17.94
2023-04-30T20:47:39.666Z,17.99
2023-04-30T20:50:06.888Z,18.03
2023-04-30T20:52:33.617Z,18.00
2023-04-30T20:55:00.390Z,17.95
2023-04-30T20:57:27.074Z,17.91
2023-04-30T20:59:54.059Z,17.91
2023-04-30T21:02:20.992Z,17.88
2023-04-30T21:04:47.706Z,17.93
2023-04-30T21:07:14.484Z,17.94
2023-04-30T21:09:41.158Z,17.98
2023-04-30T21:12:07.914Z,18.01
2023-04-30T21:14:34.588Z,18.05
2023-04-30T21:17:01.400Z,18.05
2023-04-30T21:19:28.233Z,18.03
2023-04-30T21:21:54.834Z,17.99
2023-04-30T21:24:21.500Z,17.92
2023-04-30T21:26:48.187Z,17.86
2023-04-30T21:29:14.868Z,17.83
2023-04-30T21:31:41.522Z,17.89
2023-04-30T21:34:08.178Z,17.92
2023-04-30T21:36:34.962Z,17.95
2023-04-30T21:39:01.655Z,17.96
2023-04-30T21:41:28.385Z,17.91
2023-04-30T21:43:55.108Z,17.84
2023-04-30T21:46:21.940Z,17.78
2023-04-30T21:48:48.615Z,17.79
2023-04-30T21:51:15.401Z,17.85
2023-04-30T21:53:42.494Z,17.88
2023-04-30T21:56:09.562Z,17.92
2023-04-30T21:58:36.281Z,17.92
2023-04-30T22:01:03.171Z,17.86
2023-04-30T22:03:30.467Z,17.79
2023-04-30T22:05:57.736Z,17.75
2023-04-30T22:08:24.415Z,17.70
2023-04-30T22:10:55.759Z,17.72
2023-04-30T22:13:22.445Z,17.72
2023-04-30T22:15:50.165Z,17.72
2023-04-30T22:18:16.889Z,17.70
2023-04-30T22:20:43.557Z,17.71
2023-04-30T22:23:10.224Z,17.67
2023-04-30T22:25:36.844Z,17.61
2023-04-30T22:28:03.505Z,17.63
2023-04-30T22:30:30.165Z,17.65
2023-04-30T22:32:56.909Z,17.69
2023-04-30T22:35:23.800Z,17.67
2023-04-30T22:37:50.537Z,17.62
2023-04-30T22:40:17.168Z,17.62
2023-04-30T22:42:43.779Z,17.61
2023-04-30T22:45:10.508Z,17.61
2023-04-30T22:47:37.288Z,17.60
2023-04-30T22:50:04.278Z,17.58
2023-04-30T22:52:31.034Z,17.54
2023-04-30T22:54:57.749Z,17.55
2023-04-30T22:57:24.467Z,17.50
2023-04-30T22:59:51.119Z,17.53
2023-04-30T23:02:18.102Z,17.55
2023-04-30T23:04:44.788Z,17.54
2023-04-30T23:07:11.451Z,17.52
2023-04-30T23:09:38.117Z,17.52
2023-04-30T23:12:04.898Z,17.48
2023-04-30T23:14:31.518Z,17.50
2023-04-30T23:16:58.194Z,17.50
2023-04-30T23:19:25.014Z,17.52
2023-04-30T23:21:51.711Z,17.55
2023-04-30T23:24:18.313Z,17.59
2023-04-30T23:26:44.929Z,17.59
2023-04-30T23:29:11.657Z,17.61
2023-04-30T23:31:38.295Z,17.62
2023-04-30T23:34:04.946Z,17.62
2023-04-30T23:36:31.586Z,17.63
2023-04-30T23:38:58.226Z,17.62
2023-04-30T23:41:24.832Z,17.63
2023-04-30T23:43:51.433Z,17.63
2023-04-30T23:46:18.272Z,17.61
2023-04-30T23:48:44.981Z,17.54
2023-04-30T23:51:11.630Z,17.51
2023-04-30T23:53:38.330Z,17.50
2023-04-30T23:56:05.149Z,17.48
2023-04-30T23:58:31.755Z,17.47
